Time;durP1;ratioP1;P1;durP2;ratioP2;P2;SDS_P1;SDS_P2;PMS_P1;PMS_P2;Temp;Humidity;BMP_temperature;BMP_pressure;BME280_temperature;BME280_humidity;BME280_pressure;Samples;Min_cycle;Max_cycle;Signal;HPM_P1;HPM_P2
2023/10/06 00:00:26;;;;;;;11.40;5.15;;;;;;;;;;5077029;28;20381;-92
2023/10/06 00:02:52;;;;;;;10.93;4.88;;;;;;;;;;5059921;28;20028;-91
2023/10/06 00:05:19;;;;;;;15.73;4.80;;;;;;;;;;5059566;28;20116;-91
2023/10/06 00:07:45;;;;;;;9.48;5.03;;;;;;;;;;5077158;28;20310;-90
2023/10/06 00:10:20;;;;;;;12.52;5.00;;;;;;;;;;5077398;28;20056;-90
2023/10/06 00:12:54;;;;;;;9.55;4.53;;;;;;;;;;5077330;28;20032;-90
2023/10/06 00:15:26;;;;;;;13.95;4.90;;;;;;;;;;5077296;28;20025;-90
2023/10/06 00:18:07;;;;;;;13.75;4.90;;;;;;;;;;5059130;28;20019;-90
2023/10/06 00:20:48;;;;;;;11.88;5.05;;;;;;;;;;5059563;28;20056;-90
2023/10/06 00:23:14;;;;;;;9.55;5.20;;;;;;;;;;5077069;28;20029;-90
2023/10/06 00:25:44;;;;;;;12.30;4.63;;;;;;;;;;5076993;28;20170;-89
2023/10/06 00:28:20;;;;;;;10.75;4.35;;;;;;;;;;5076977;28;20036;-90
2023/10/06 00:30:55;;;;;;;11.38;4.97;;;;;;;;;;5077020;28;20028;-91
2023/10/06 00:33:22;;;;;;;13.10;5.03;;;;;;;;;;5059343;28;20029;-90
2023/10/06 00:38:52;;;;;;;12.70;4.80;;;;;;;;;;5077616;28;20019;-91
2023/10/06 00:41:20;;;;;;;11.48;4.95;;;;;;;;;;5080321;28;20028;-91
2023/10/06 00:43:46;;;;;;;13.07;5.75;;;;;;;;;;5062784;28;20146;-90
2023/10/06 00:46:16;;;;;;;14.05;5.35;;;;;;;;;;5062964;28;20024;-90
2023/10/06 00:48:44;;;;;;;10.15;4.95;;;;;;;;;;5080102;28;20060;-90
2023/10/06 00:54:14;;;;;;;9.15;4.70;;;;;;;;;;5080427;28;20433;-90
2023/10/06 00:56:40;;;;;;;12.23;4.72;;;;;;;;;;5062583;28;20029;-89
2023/10/06 00:59:07;;;;;;;11.18;4.85;;;;;;;;;;5058938;28;20048;-89
2023/10/06 01:01:34;;;;;;;8.45;4.65;;;;;;;;;;5059806;28;20053;-89
2023/10/06 01:04:12;;;;;;;15.02;5.00;;;;;;;;;;5059095;28;20033;-89
2023/10/06 01:06:42;;;;;;;9.60;4.70;;;;;;;;;;5059782;28;20112;-89
2023/10/06 01:09:16;;;;;;;11.70;5.43;;;;;;;;;;5071751;28;20103;-89
2023/10/06 01:11:45;;;;;;;12.43;5.07;;;;;;;;;;5062274;28;20029;-89
2023/10/06 01:14:14;;;;;;;9.45;5.57;;;;;;;;;;5062364;28;20422;-88
2023/10/06 01:16:42;;;;;;;12.55;4.70;;;;;;;;;;5062317;28;20052;-89
2023/10/06 01:25:24;;;;;;;14.73;6.32;;;;;;;;;;5079891;28;20028;-89
2023/10/06 01:27:53;;;;;;;18.63;7.22;;;;;;;;;;5079524;28;20028;-89
2023/10/06 01:30:19;;;;;;;18.63;6.55;;;;;;;;;;5079585;28;20025;-89
2023/10/06 01:32:49;;;;;;;12.48;6.13;;;;;;;;;;5079273;28;20028;-91
2023/10/06 01:35:20;;;;;;;18.15;6.30;;;;;;;;;;5079720;28;20025;-91
2023/10/06 01:38:14;;;;;;;14.05;6.38;;;;;;;;;;5061534;28;20027;-89
2023/10/06 01:42:59;;;;;;;10.98;5.55;;;;;;;;;;5079678;28;20095;-88
2023/10/06 01:45:28;;;;;;;12.35;6.28;;;;;;;;;;5079321;28;20402;-90
2023/10/06 01:48:14;;;;;;;22.02;6.00;;;;;;;;;;5060095;28;20025;-89
2023/10/06 01:53:44;;;;;;;14.82;5.22;;;;;;;;;;5079529;28;20035;-91
2023/10/06 01:56:10;;;;;;;11.73;5.80;;;;;;;;;;5079106;28;20025;-90
2023/10/06 01:58:37;;;;;;;10.45;5.53;;;;;;;;;;5078809;28;20291;-90
2023/10/06 02:01:05;;;;;;;13.88;6.60;;;;;;;;;;5078843;28;20040;-90
2023/10/06 02:03:37;;;;;;;14.93;7.72;;;;;;;;;;5078947;28;20027;-92
2023/10/06 02:08:52;;;;;;;14.95;6.50;;;;;;;;;;5078728;28;19911;-91
2023/10/06 02:11:27;;;;;;;20.20;7.13;;;;;;;;;;5061107;28;20040;-93
2023/10/06 02:13:53;;;;;;;15.95;6.07;;;;;;;;;;5072125;28;20044;-93
2023/10/06 02:16:26;;;;;;;17.20;6.47;;;;;;;;;;5061186;28;20024;-92
2023/10/06 02:18:53;;;;;;;18.05;6.28;;;;;;;;;;5071211;28;20031;-90
2023/10/06 02:24:23;;;;;;;38.38;6.90;;;;;;;;;;5078881;28;20059;-92
2023/10/06 02:27:01;;;;;;;14.00;5.57;;;;;;;;;;5078443;28;20020;-91
2023/10/06 02:29:28;;;;;;;17.40;5.63;;;;;;;;;;5077947;28;20123;-92
2023/10/06 02:32:01;;;;;;;12.88;5.50;;;;;;;;;;5060622;28;20032;-89
2023/10/06 02:34:35;;;;;;;12.77;5.57;;;;;;;;;;5060225;28;20032;-89
2023/10/06 02:37:01;;;;;;;20.38;5.90;;;;;;;;;;5078597;28;20062;-89
2023/10/06 02:39:34;;;;;;;12.60;6.07;;;;;;;;;;5059652;28;20043;-89
2023/10/06 02:42:09;;;;;;;11.88;5.18;;;;;;;;;;5078007;28;20031;-89
2023/10/06 02:44:38;;;;;;;16.27;5.18;;;;;;;;;;5077987;28;20028;-90
2023/10/06 02:47:09;;;;;;;13.77;5.97;;;;;;;;;;5078170;28;20056;-89
2023/10/06 02:52:42;;;;;;;18.90;6.32;;;;;;;;;;5077918;28;20341;-89
2023/10/06 02:55:10;;;;;;;18.55;5.28;;;;;;;;;;5057583;28;20020;-91
2023/10/06 02:57:37;;;;;;;15.82;5.10;;;;;;;;;;5050786;28;20119;-90
2023/10/06 03:02:48;;;;;;;17.08;5.43;;;;;;;;;;5077754;28;20039;-89
2023/10/06 03:05:37;;;;;;;17.52;6.05;;;;;;;;;;5077553;28;20406;-88
2023/10/06 03:08:11;;;;;;;15.15;6.05;;;;;;;;;;5077723;28;20040;-90
2023/10/06 03:10:43;;;;;;;11.32;5.30;;;;;;;;;;5059680;28;20075;-90
2023/10/06 03:13:16;;;;;;;16.05;5.20;;;;;;;;;;5077692;28;20043;-90
2023/10/06 03:15:46;;;;;;;14.27;5.35;;;;;;;;;;5077882;28;20024;-89
2023/10/06 03:18:16;;;;;;;16.63;6.00;;;;;;;;;;5060001;28;20058;-90
2023/10/06 03:24:15;;;;;;;18.80;5.43;;;;;;;;;;5077751;28;20074;-91
2023/10/06 03:26:45;;;;;;;12.20;5.22;;;;;;;;;;5077397;28;20034;-91
2023/10/06 03:29:25;;;;;;;13.68;5.70;;;;;;;;;;5059720;28;20036;-91
2023/10/06 03:31:56;;;;;;;15.20;6.78;;;;;;;;;;5059837;28;20028;-91
2023/10/06 03:34:23;;;;;;;16.02;6.55;;;;;;;;;;5077812;28;20311;-91
2023/10/06 03:40:22;;;;;;;14.75;6.07;;;;;;;;;;5057380;28;20048;-89
2023/10/06 03:42:48;;;;;;;16.33;5.45;;;;;;;;;;5039592;28;20106;-85
2023/10/06 03:45:27;;;;;;;14.38;5.93;;;;;;;;;;5039448;28;20064;-84
2023/10/06 03:47:53;;;;;;;13.45;6.30;;;;;;;;;;5057896;28;20062;-85
2023/10/06 03:50:20;;;;;;;12.75;5.80;;;;;;;;;;5059424;28;20040;-85
2023/10/06 03:52:49;;;;;;;10.60;4.82;;;;;;;;;;5076859;28;20029;-85
2023/10/06 03:55:17;;;;;;;11.88;5.93;;;;;;;;;;5059279;28;20021;-85
2023/10/06 03:57:43;;;;;;;14.32;6.10;;;;;;;;;;5077493;28;20023;-85
2023/10/06 04:00:17;;;;;;;12.98;5.80;;;;;;;;;;5076437;28;20045;-85
2023/10/06 04:02:48;;;;;;;15.27;6.38;;;;;;;;;;5077040;28;20033;-85
2023/10/06 04:05:15;;;;;;;14.00;6.10;;;;;;;;;;5076997;28;20078;-85
2023/10/06 04:07:41;;;;;;;18.88;6.57;;;;;;;;;;5058705;28;20071;-84
2023/10/06 04:10:14;;;;;;;11.23;6.22;;;;;;;;;;5058860;28;20050;-85
2023/10/06 04:12:40;;;;;;;17.23;6.28;;;;;;;;;;5058932;28;20055;-85
2023/10/06 04:15:06;;;;;;;20.30;6.28;;;;;;;;;;5061696;28;20029;-84
2023/10/06 04:17:32;;;;;;;14.82;6.38;;;;;;;;;;5080812;28;20024;-85
2023/10/06 04:23:02;;;;;;;14.65;6.25;;;;;;;;;;5081010;28;20027;-85
2023/10/06 04:25:28;;;;;;;14.93;7.03;;;;;;;;;;5080799;28;20348;-85
2023/10/06 04:27:54;;;;;;;17.25;7.20;;;;;;;;;;5062949;28;20024;-85
2023/10/06 04:30:21;;;;;;;16.65;8.07;;;;;;;;;;5080354;28;20029;-85
2023/10/06 04:32:47;;;;;;;17.77;8.80;;;;;;;;;;5062796;28;20115;-85
2023/10/06 04:38:17;;;;;;;16.10;7.75;;;;;;;;;;5080302;28;20086;-85
2023/10/06 04:40:46;;;;;;;17.75;7.32;;;;;;;;;;5062675;28;20029;-84
2023/10/06 04:43:13;;;;;;;19.95;8.32;;;;;;;;;;5062178;28;20032;-85
2023/10/06 04:45:40;;;;;;;18.55;9.82;;;;;;;;;;5062426;28;20115;-85
2023/10/06 04:48:09;;;;;;;17.83;8.20;;;;;;;;;;5061560;28;20037;-85
2023/10/06 04:53:38;;;;;;;20.23;7.47;;;;;;;;;;5080450;28;20131;-85
2023/10/06 04:56:05;;;;;;;14.73;6.70;;;;;;;;;;5062295;28;20024;-85
2023/10/06 04:58:31;;;;;;;17.33;7.15;;;;;;;;;;5079891;28;20085;-84
2023/10/06 05:01:00;;;;;;;20.10;8.00;;;;;;;;;;5079976;28;20056;-85
2023/10/06 05:03:41;;;;;;;19.35;9.48;;;;;;;;;;5079712;28;20032;-85
2023/10/06 05:06:15;;;;;;;20.67;9.20;;;;;;;;;;5062019;28;20059;-85
2023/10/06 05:08:42;;;;;;;21.98;8.32;;;;;;;;;;5079831;28;20066;-84
2023/10/06 05:11:10;;;;;;;17.83;7.93;;;;;;;;;;5062485;28;20040;-84
2023/10/06 05:13:37;;;;;;;16.35;7.47;;;;;;;;;;5061621;28;20040;-84
2023/10/06 05:16:03;;;;;;;16.85;8.15;;;;;;;;;;5062012;28;20075;-84
2023/10/06 05:18:30;;;;;;;15.90;7.20;;;;;;;;;;5061636;28;20020;-84
2023/10/06 05:20:57;;;;;;;16.35;7.30;;;;;;;;;;5079447;28;20296;-85
2023/10/06 05:23:24;;;;;;;15.27;7.45;;;;;;;;;;5061787;28;20414;-85
2023/10/06 05:25:50;;;;;;;18.08;7.95;;;;;;;;;;5061285;28;20025;-84
2023/10/06 05:28:20;;;;;;;13.50;7.13;;;;;;;;;;5061116;28;20029;-84
2023/10/06 05:30:46;;;;;;;14.73;7.18;;;;;;;;;;5079221;28;20037;-84
2023/10/06 05:33:14;;;;;;;17.02;7.55;;;;;;;;;;5079417;28;20055;-84
2023/10/06 05:38:45;;;;;;;23.50;7.25;;;;;;;;;;5079081;28;20032;-84
2023/10/06 05:41:11;;;;;;;15.07;6.63;;;;;;;;;;5061402;28;20029;-84
2023/10/06 05:43:37;;;;;;;16.17;7.05;;;;;;;;;;5078663;28;20052;-83
2023/10/06 05:46:05;;;;;;;15.05;6.60;;;;;;;;;;5060441;28;20415;-84
2023/10/06 05:48:31;;;;;;;15.30;6.85;;;;;;;;;;5079150;28;20398;-83
2023/10/06 05:51:21;;;;;;;14.50;6.30;;;;;;;;;;5078782;28;20021;-84
2023/10/06 05:53:48;;;;;;;15.15;5.93;;;;;;;;;;5079073;28;20052;-84
2023/10/06 05:56:20;;;;;;;12.68;6.65;;;;;;;;;;5078583;28;20016;-83
2023/10/06 05:58:46;;;;;;;10.27;5.53;;;;;;;;;;5067552;28;20074;-84
2023/10/06 06:01:18;;;;;;;11.80;5.13;;;;;;;;;;5058658;28;20040;-84
2023/10/06 06:03:49;;;;;;;9.07;4.82;;;;;;;;;;5078452;28;20045;-84
2023/10/06 06:09:19;;;;;;;11.32;5.20;;;;;;;;;;5078334;28;20078;-84
2023/10/06 06:11:45;;;;;;;12.20;5.35;;;;;;;;;;5060548;28;20044;-84
2023/10/06 06:14:11;;;;;;;11.25;5.20;;;;;;;;;;5060014;28;20032;-85
2023/10/06 06:16:37;;;;;;;13.75;5.90;;;;;;;;;;5060314;28;20123;-85
2023/10/06 06:19:05;;;;;;;12.52;4.95;;;;;;;;;;5077826;28;20048;-84
2023/10/06 06:21:32;;;;;;;11.55;4.70;;;;;;;;;;5059070;28;20041;-84
2023/10/06 06:23:58;;;;;;;9.30;4.50;;;;;;;;;;5077945;28;20036;-84
2023/10/06 06:26:25;;;;;;;19.73;5.63;;;;;;;;;;5071023;28;20104;-84
2023/10/06 06:28:52;;;;;;;14.70;4.63;;;;;;;;;;5052033;28;20039;-84
2023/10/06 06:31:19;;;;;;;9.20;5.10;;;;;;;;;;5078364;28;20029;-84
2023/10/06 06:33:48;;;;;;;11.10;4.65;;;;;;;;;;5077777;28;20020;-85
2023/10/06 06:36:15;;;;;;;11.55;4.57;;;;;;;;;;5059604;28;20032;-84
2023/10/06 06:38:41;;;;;;;14.00;4.18;;;;;;;;;;5059866;28;20020;-85
2023/10/06 06:41:08;;;;;;;12.77;4.80;;;;;;;;;;5059500;28;20027;-87
2023/10/06 06:43:34;;;;;;;8.13;4.13;;;;;;;;;;5060619;28;20111;-88
2023/10/06 06:46:00;;;;;;;10.18;4.38;;;;;;;;;;5060041;28;20024;-87
2023/10/06 06:48:26;;;;;;;7.75;3.55;;;;;;;;;;5059405;28;20020;-87
2023/10/06 06:50:52;;;;;;;10.10;4.72;;;;;;;;;;5060131;28;20044;-86
2023/10/06 06:53:19;;;;;;;9.23;4.30;;;;;;;;;;5077343;28;20330;-85
2023/10/06 06:55:46;;;;;;;11.20;4.10;;;;;;;;;;5077430;28;20021;-88
2023/10/06 06:58:16;;;;;;;12.18;4.43;;;;;;;;;;5060300;28;20115;-87
2023/10/06 07:00:42;;;;;;;8.35;3.83;;;;;;;;;;5053328;28;20420;-85
2023/10/06 07:03:10;;;;;;;9.48;3.80;;;;;;;;;;5050344;28;20029;-86
2023/10/06 07:05:37;;;;;;;7.90;4.00;;;;;;;;;;5076127;28;20028;-86
2023/10/06 07:08:04;;;;;;;8.45;4.35;;;;;;;;;;5077576;28;20059;-86
2023/10/06 11:52:19;;;;;;;7.82;3.17;;;;;;;;;;5053160;28;20373;-85
2023/10/06 11:54:46;;;;;;;6.97;3.33;;;;;;;;;;5032788;28;20030;-85
2023/10/06 11:57:13;;;;;;;10.50;2.95;;;;;;;;;;5034330;28;20050;-85
2023/10/06 11:59:48;;;;;;;10.23;3.55;;;;;;;;;;5033312;28;20022;-86
2023/10/06 12:02:15;;;;;;;7.03;3.20;;;;;;;;;;5034643;28;20109;-85
2023/10/06 12:04:41;;;;;;;7.93;3.10;;;;;;;;;;5033588;28;20431;-86
2023/10/06 12:07:09;;;;;;;5.63;3.08;;;;;;;;;;5034402;28;20140;-87
2023/10/06 12:09:35;;;;;;;12.23;3.50;;;;;;;;;;5014678;28;20030;-86
2023/10/06 12:12:02;;;;;;;8.50;3.25;;;;;;;;;;5024653;28;20105;-86
2023/10/06 12:14:28;;;;;;;9.10;3.15;;;;;;;;;;5033540;28;20117;-85
2023/10/06 12:16:54;;;;;;;8.50;3.38;;;;;;;;;;5034373;28;20021;-86
2023/10/06 12:19:22;;;;;;;9.13;2.97;;;;;;;;;;5033242;28;20311;-86
2023/10/06 12:21:48;;;;;;;8.57;3.13;;;;;;;;;;5034170;28;20030;-86
2023/10/06 12:24:14;;;;;;;7.18;3.60;;;;;;;;;;5033390;28;20411;-86
2023/10/06 12:26:59;;;;;;;6.22;2.80;;;;;;;;;;5033419;28;20124;-86
2023/10/06 12:29:28;;;;;;;11.02;3.65;;;;;;;;;;5026411;28;20026;-86
2023/10/06 12:31:56;;;;;;;9.52;3.28;;;;;;;;;;5033874;28;20053;-86
2023/10/06 12:34:23;;;;;;;8.35;3.17;;;;;;;;;;5033988;28;20033;-88
2023/10/06 12:36:49;;;;;;;12.10;4.50;;;;;;;;;;5033132;28;20036;-87
2023/10/06 12:39:17;;;;;;;13.15;3.60;;;;;;;;;;5029370;28;20038;-87
2023/10/06 12:42:03;;;;;;;10.77;3.22;;;;;;;;;;5020418;28;20320;-87
2023/10/06 12:44:29;;;;;;;10.77;3.83;;;;;;;;;;5025324;28;20081;-86
2023/10/06 12:46:56;;;;;;;14.13;4.60;;;;;;;;;;5030008;28;20022;-87
2023/10/06 12:49:23;;;;;;;12.40;3.85;;;;;;;;;;5032754;28;20022;-87
2023/10/06 12:51:50;;;;;;;10.93;3.35;;;;;;;;;;5026541;28;20066;-87
2023/10/06 12:54:16;;;;;;;10.48;3.67;;;;;;;;;;5018852;28;20025;-87
2023/10/06 12:56:46;;;;;;;9.10;3.20;;;;;;;;;;5014619;28;20033;-88
2023/10/06 12:59:12;;;;;;;8.40;3.10;;;;;;;;;;5012834;28;20070;-87
2023/10/06 13:01:38;;;;;;;8.15;2.97;;;;;;;;;;5000079;28;20022;-87
2023/10/06 13:04:08;;;;;;;8.90;3.20;;;;;;;;;;4999789;28;20022;-88
2023/10/06 13:06:35;;;;;;;11.18;3.45;;;;;;;;;;5018985;28;20049;-88
2023/10/06 13:09:04;;;;;;;10.35;3.83;;;;;;;;;;5014738;28;20034;-88
2023/10/06 13:11:49;;;;;;;8.20;3.60;;;;;;;;;;5013332;28;20072;-92
2023/10/06 13:14:18;;;;;;;8.50;3.15;;;;;;;;;;5000638;28;20026;-88
2023/10/06 13:16:44;;;;;;;7.95;3.20;;;;;;;;;;4999620;28;20043;-88
2023/10/06 13:19:10;;;;;;;10.15;3.15;;;;;;;;;;5000612;28;20037;-89
2023/10/06 13:21:36;;;;;;;7.90;3.35;;;;;;;;;;4999538;28;20077;-88
2023/10/06 13:24:05;;;;;;;15.90;3.42;;;;;;;;;;5000594;28;20069;-88
2023/10/06 13:26:34;;;;;;;9.25;3.60;;;;;;;;;;5000679;28;20018;-88
2023/10/06 13:29:00;;;;;;;10.68;3.53;;;;;;;;;;5000445;28;20034;-87
2023/10/06 13:31:26;;;;;;;12.05;3.25;;;;;;;;;;4999431;28;20443;-89
2023/10/06 13:33:54;;;;;;;10.98;3.55;;;;;;;;;;5000467;28;20416;-88
2023/10/06 13:36:20;;;;;;;8.68;3.25;;;;;;;;;;5000474;28;20030;-89
2023/10/06 13:38:46;;;;;;;10.18;2.65;;;;;;;;;;4999572;28;20026;-87
2023/10/06 13:41:12;;;;;;;8.70;3.20;;;;;;;;;;4999664;28;20034;-89
2023/10/06 13:43:38;;;;;;;11.48;2.88;;;;;;;;;;5000281;28;20412;-89
2023/10/06 13:46:05;;;;;;;14.63;3.42;;;;;;;;;;5000459;28;20022;-89
2023/10/06 13:48:31;;;;;;;10.07;3.28;;;;;;;;;;5000225;28;20105;-88
2023/10/06 13:50:59;;;;;;;11.07;3.13;;;;;;;;;;4999596;28;20058;-88
2023/10/06 13:53:25;;;;;;;5.72;2.80;;;;;;;;;;4998932;28;20066;-88
2023/10/06 13:55:52;;;;;;;8.32;2.90;;;;;;;;;;4999160;28;20446;-88
2023/10/06 13:58:20;;;;;;;13.48;2.95;;;;;;;;;;4999776;28;20114;-87
2023/10/06 14:00:47;;;;;;;12.90;3.22;;;;;;;;;;4999724;28;20031;-89
2023/10/06 14:03:14;;;;;;;9.75;3.28;;;;;;;;;;4998757;28;20069;-89
2023/10/06 14:05:43;;;;;;;6.65;2.72;;;;;;;;;;4998350;28;20022;-89
2023/10/06 14:08:10;;;;;;;10.10;3.10;;;;;;;;;;4999793;28;20035;-89
2023/10/06 14:10:37;;;;;;;6.45;2.80;;;;;;;;;;5002024;28;20044;-90
2023/10/06 14:16:09;;;;;;;9.07;2.83;;;;;;;;;;5012856;28;20120;-90
2023/10/06 14:18:38;;;;;;;11.25;3.03;;;;;;;;;;5005560;28;20113;-89
2023/10/06 14:21:09;;;;;;;10.82;3.13;;;;;;;;;;5004252;28;20119;-87
2023/10/06 14:23:41;;;;;;;6.97;2.97;;;;;;;;;;4999516;28;20072;-89
2023/10/06 14:26:35;;;;;;;11.75;3.50;;;;;;;;;;5007891;28;20050;-89
2023/10/06 14:29:05;;;;;;;10.45;3.90;;;;;;;;;;5017869;28;20022;-88
2023/10/06 14:31:47;;;;;;;13.35;4.32;;;;;;;;;;5007104;28;20026;-89
2023/10/06 14:36:59;;;;;;;10.13;4.07;;;;;;;;;;5018806;28;20040;-89
